Time;durP1;ratioP1;P1;durP2;ratioP2;P2;SDS_P1;SDS_P2;PMS_P1;PMS_P2;Temp;Humidity;BMP_temperature;BMP_pressure;BME280_temperature;BME280_humidity;BME280_pressure;Samples;Min_cycle;Max_cycle;Signal;HPM_P1;HPM_P2
2023/09/30 00:00:00;;;;;;;0.10;0.10;;;17.00;99.90;;;;;;4962054;28;20307;-80
2023/09/30 00:02:27;;;;;;;0.10;0.10;;;17.00;99.90;;;;;;4963321;28;20181;-80
2023/09/30 00:04:53;;;;;;;0.10;0.10;;;17.00;99.90;;;;;;4960786;28;20295;-80
2023/09/30 00:07:18;;;;;;;0.10;0.10;;;17.10;99.90;;;;;;4961679;28;20707;-80
2023/09/30 00:09:44;;;;;;;0.10;0.10;;;17.10;99.90;;;;;;4959781;28;20201;-80
2023/09/30 00:12:09;;;;;;;0.10;0.10;;;17.20;99.90;;;;;;4962955;28;20240;-79
2023/09/30 00:14:36;;;;;;;0.10;0.10;;;17.30;99.90;;;;;;4964030;28;20701;-80
2023/09/30 00:17:01;;;;;;;0.10;0.10;;;17.40;99.90;;;;;;4962479;28;20197;-80
2023/09/30 00:19:27;;;;;;;0.10;0.10;;;17.40;99.90;;;;;;4961660;28;20219;-80
2023/09/30 00:21:52;;;;;;;0.10;0.10;;;17.30;99.90;;;;;;4959725;28;20653;-80
2023/09/30 00:24:18;;;;;;;0.10;0.10;;;17.30;99.90;;;;;;4957976;28;20188;-80
2023/09/30 00:26:43;;;;;;;0.10;0.10;;;17.40;99.90;;;;;;4962045;28;20657;-80
2023/09/30 00:29:10;;;;;;;0.10;0.10;;;17.30;99.90;;;;;;4961755;28;20844;-80
2023/09/30 00:31:36;;;;;;;0.10;0.10;;;17.30;99.90;;;;;;4960950;28;20871;-80
2023/09/30 00:34:01;;;;;;;0.10;0.10;;;17.30;99.90;;;;;;4961732;28;20266;-80
2023/09/30 00:36:27;;;;;;;0.10;0.10;;;17.30;99.90;;;;;;4960245;28;20403;-80
2023/09/30 00:38:52;;;;;;;0.10;0.10;;;17.10;99.90;;;;;;4961376;28;20264;-80
2023/09/30 00:41:18;;;;;;;0.10;0.10;;;17.00;99.90;;;;;;4961586;28;20212;-80
2023/09/30 00:43:46;;;;;;;0.10;0.10;;;17.10;99.90;;;;;;4962918;28;20196;-80
2023/09/30 00:46:14;;;;;;;0.10;0.10;;;17.00;99.90;;;;;;4961073;28;20177;-80
2023/09/30 00:48:40;;;;;;;0.10;0.10;;;16.90;99.90;;;;;;4960703;28;20848;-79
2023/09/30 00:51:06;;;;;;;0.10;0.10;;;16.80;99.90;;;;;;4959778;28;20203;-80
2023/09/30 00:53:32;;;;;;;0.10;0.10;;;16.90;99.90;;;;;;4961264;28;20177;-80
2023/09/30 00:55:58;;;;;;;0.10;0.10;;;16.90;99.90;;;;;;4960019;28;20695;-80
2023/09/30 00:58:28;;;;;;;0.10;0.10;;;17.00;99.90;;;;;;4974541;28;20260;-80
2023/09/30 01:00:56;;;;;;;0.10;0.10;;;16.90;99.90;;;;;;4960503;28;20212;-80
2023/09/30 01:03:22;;;;;;;0.10;0.10;;;16.90;99.90;;;;;;4959802;28;20199;-80
2023/09/30 01:05:49;;;;;;;0.10;0.10;;;16.90;99.90;;;;;;4958365;28;20655;-80
2023/09/30 01:08:16;;;;;;;0.10;0.10;;;16.90;99.90;;;;;;4959687;28;20269;-79
2023/09/30 01:10:42;;;;;;;0.10;0.10;;;16.80;99.90;;;;;;4960060;28;20299;-80
2023/09/30 01:13:07;;;;;;;0.10;0.10;;;16.90;99.90;;;;;;4975539;28;20276;-80
2023/09/30 01:15:33;;;;;;;0.10;0.10;;;16.80;99.90;;;;;;4959576;28;20232;-80
2023/09/30 01:17:58;;;;;;;0.10;0.10;;;16.80;99.90;;;;;;4958774;28;20595;-80
2023/09/30 01:20:24;;;;;;;0.10;0.10;;;16.70;99.90;;;;;;4958808;28;20263;-80
2023/09/30 01:22:50;;;;;;;0.10;0.10;;;16.90;99.90;;;;;;4958976;28;20227;-80
2023/09/30 01:25:16;;;;;;;0.10;0.10;;;16.60;99.90;;;;;;4960753;28;20259;-79
2023/09/30 01:27:41;;;;;;;0.10;0.10;;;16.70;99.90;;;;;;4959802;28;20188;-80
2023/09/30 01:30:10;;;;;;;0.10;0.10;;;16.70;99.90;;;;;;4957957;28;20299;-80
2023/09/30 01:32:37;;;;;;;0.10;0.10;;;16.50;99.90;;;;;;4958809;28;20185;-80
2023/09/30 01:35:02;;;;;;;0.10;0.10;;;16.40;99.90;;;;;;4958332;28;20536;-80
2023/09/30 01:37:28;;;;;;;0.00;0.00;;;16.40;99.90;;;;;;4958930;28;20199;-80
2023/09/30 01:39:54;;;;;;;0.10;0.10;;;16.50;99.90;;;;;;4958754;28;20212;-80
2023/09/30 01:42:20;;;;;;;0.10;0.10;;;16.50;99.90;;;;;;4958724;28;20193;-80
2023/09/30 01:44:46;;;;;;;0.10;0.10;;;16.60;99.90;;;;;;4959344;28;20565;-80
2023/09/30 01:47:11;;;;;;;0.10;0.10;;;16.40;99.90;;;;;;4958053;28;20228;-80
2023/09/30 01:49:37;;;;;;;0.10;0.10;;;16.50;99.90;;;;;;4959739;28;20209;-80
2023/09/30 01:52:03;;;;;;;0.10;0.10;;;16.40;99.90;;;;;;4957015;28;20184;-80
2023/09/30 01:54:28;;;;;;;0.10;0.10;;;16.40;99.90;;;;;;4957797;28;20215;-80
2023/09/30 01:56:54;;;;;;;0.10;0.10;;;16.30;99.90;;;;;;4958944;28;20684;-80
2023/09/30 01:59:20;;;;;;;0.10;0.10;;;16.30;99.90;;;;;;4958684;28;20216;-80
2023/09/30 02:01:45;;;;;;;0.10;0.10;;;16.30;99.90;;;;;;4959803;28;20181;-80
2023/09/30 02:04:15;;;;;;;0.10;0.10;;;16.20;99.90;;;;;;4959620;28;20660;-80
2023/09/30 02:06:41;;;;;;;0.10;0.10;;;16.20;99.90;;;;;;4958728;28;20660;-80
2023/09/30 02:09:10;;;;;;;0.10;0.10;;;16.20;99.90;;;;;;4975532;28;20189;-80
2023/09/30 02:11:36;;;;;;;0.10;0.10;;;16.20;99.90;;;;;;4959154;28;20189;-80
2023/09/30 02:14:02;;;;;;;0.10;0.10;;;16.20;99.90;;;;;;4958223;28;20184;-80
2023/09/30 02:16:28;;;;;;;0.10;0.10;;;16.20;99.90;;;;;;4974850;28;20188;-80
2023/09/30 02:18:53;;;;;;;0.10;0.10;;;16.20;99.90;;;;;;4957376;28;20193;-80
2023/09/30 02:21:19;;;;;;;0.10;0.10;;;16.30;99.90;;;;;;4956934;28;20204;-80
2023/09/30 02:23:47;;;;;;;0.10;0.10;;;16.30;99.90;;;;;;4958451;28;20189;-80
2023/09/30 02:26:17;;;;;;;0.10;0.10;;;16.30;99.90;;;;;;4959163;28;20556;-81
2023/09/30 02:28:43;;;;;;;0.10;0.10;;;16.30;99.90;;;;;;4976094;28;20591;-80
2023/09/30 02:31:08;;;;;;;0.10;0.10;;;16.30;99.90;;;;;;4958327;28;20223;-81
2023/09/30 02:33:38;;;;;;;0.10;0.10;;;16.30;99.90;;;;;;4960299;28;20216;-80
2023/09/30 02:36:07;;;;;;;0.10;0.10;;;16.30;99.90;;;;;;4960720;28;20239;-81
2023/09/30 02:38:32;;;;;;;0.10;0.10;;;16.10;99.90;;;;;;4957877;28;20203;-80
2023/09/30 02:40:58;;;;;;;0.10;0.10;;;16.10;99.90;;;;;;4958912;28;20225;-81
2023/09/30 02:43:24;;;;;;;0.10;0.10;;;16.10;99.90;;;;;;4961717;28;20195;-80
2023/09/30 02:45:50;;;;;;;0.10;0.10;;;16.20;99.90;;;;;;4958503;28;20579;-81
2023/09/30 02:48:15;;;;;;;0.10;0.10;;;16.10;99.90;;;;;;4958206;28;20179;-80
2023/09/30 02:50:47;;;;;;;0.10;0.10;;;16.10;99.90;;;;;;4958688;28;20208;-81
2023/09/30 02:53:13;;;;;;;0.10;0.10;;;16.20;99.90;;;;;;4956834;28;20240;-81
2023/09/30 02:55:42;;;;;;;0.10;0.10;;;16.20;99.90;;;;;;4959649;28;20192;-81
2023/09/30 02:58:08;;;;;;;0.10;0.10;;;16.20;99.90;;;;;;4957935;28;20212;-80
2023/09/30 03:00:35;;;;;;;0.10;0.10;;;16.20;99.90;;;;;;4957737;28;20245;-81
2023/09/30 03:03:01;;;;;;;0.10;0.10;;;16.20;99.90;;;;;;4954991;28;20204;-81
2023/09/30 03:05:30;;;;;;;0.10;0.10;;;16.10;99.90;;;;;;4946870;28;20277;-81
2023/09/30 03:07:56;;;;;;;0.10;0.10;;;16.10;99.90;;;;;;4957674;28;20204;-80
2023/09/30 03:10:23;;;;;;;0.10;0.10;;;15.90;99.90;;;;;;4955672;28;20688;-81
2023/09/30 03:12:52;;;;;;;0.10;0.10;;;15.80;99.90;;;;;;4958364;28;20192;-81
2023/09/30 03:15:18;;;;;;;0.10;0.10;;;15.80;99.90;;;;;;4960507;28;20244;-81
2023/09/30 03:17:44;;;;;;;0.10;0.10;;;15.70;99.90;;;;;;4962456;28;20187;-81
2023/09/30 03:20:14;;;;;;;0.10;0.10;;;15.70;99.90;;;;;;4959037;28;20244;-81
2023/09/30 03:22:42;;;;;;;0.00;0.00;;;15.70;99.90;;;;;;4958914;28;20227;-81
2023/09/30 03:25:09;;;;;;;0.10;0.10;;;15.60;99.90;;;;;;4960634;28;20219;-81
2023/09/30 03:27:36;;;;;;;0.10;0.10;;;15.60;99.90;;;;;;4960171;28;20193;-81
2023/09/30 03:30:05;;;;;;;0.10;0.10;;;15.50;99.90;;;;;;4961259;28;20235;-81
2023/09/30 03:32:33;;;;;;;0.10;0.10;;;15.50;99.90;;;;;;4963066;28;20208;-81
2023/09/30 03:35:00;;;;;;;0.10;0.10;;;15.40;99.90;;;;;;4960880;28;20605;-81
2023/09/30 03:37:26;;;;;;;0.10;0.10;;;15.30;99.90;;;;;;4958023;28;20736;-81
2023/09/30 03:39:56;;;;;;;0.10;0.10;;;15.20;99.90;;;;;;4961062;28;20266;-81
2023/09/30 03:42:22;;;;;;;0.10;0.10;;;15.20;99.90;;;;;;4977189;28;20180;-82
2023/09/30 03:44:51;;;;;;;0.10;0.10;;;15.20;99.90;;;;;;4959566;28;20535;-81
2023/09/30 03:47:17;;;;;;;0.07;0.07;;;15.20;99.90;;;;;;4962554;28;20188;-81
2023/09/30 03:49:42;;;;;;;0.10;0.10;;;15.10;99.90;;;;;;4960821;28;20699;-81
2023/09/30 03:52:09;;;;;;;0.10;0.10;;;15.00;99.90;;;;;;4961621;28;20248;-81
2023/09/30 03:54:35;;;;;;;0.10;0.10;;;14.90;99.90;;;;;;4962881;28;20193;-81
2023/09/30 03:57:01;;;;;;;0.10;0.10;;;14.80;99.90;;;;;;4959127;28;20200;-81
2023/09/30 03:59:27;;;;;;;0.10;0.10;;;14.70;99.90;;;;;;4962593;28;20201;-81
2023/09/30 04:01:53;;;;;;;0.10;0.10;;;14.70;99.90;;;;;;4962715;28;20187;-81
2023/09/30 04:04:21;;;;;;;0.10;0.10;;;14.60;99.90;;;;;;4960304;28;20188;-81
2023/09/30 04:06:47;;;;;;;0.10;0.10;;;14.70;99.90;;;;;;4960493;28;20204;-81
2023/09/30 04:09:13;;;;;;;0.10;0.10;;;14.60;99.90;;;;;;4957780;28;20184;-81
2023/09/30 04:11:39;;;;;;;0.10;0.10;;;14.50;99.90;;;;;;4962379;28;20223;-81
2023/09/30 04:14:07;;;;;;;0.10;0.10;;;14.40;99.90;;;;;;4960242;28;20201;-81
2023/09/30 04:16:33;;;;;;;0.10;0.10;;;14.50;99.90;;;;;;4963580;28;20266;-81
2023/09/30 04:18:59;;;;;;;0.10;0.10;;;14.60;99.90;;;;;;4962878;28;20275;-81
2023/09/30 04:21:24;;;;;;;0.10;0.10;;;14.60;99.90;;;;;;4961888;28;20276;-81
2023/09/30 04:23:50;;;;;;;0.10;0.10;;;14.60;99.90;;;;;;4960395;28;20682;-81
2023/09/30 04:26:16;;;;;;;0.10;0.10;;;14.60;99.90;;;;;;4957229;28;20202;-81
2023/09/30 04:28:41;;;;;;;0.10;0.10;;;14.60;99.90;;;;;;4959619;28;20208;-81
2023/09/30 04:31:07;;;;;;;0.10;0.10;;;14.60;99.90;;;;;;4957579;28;20973;-81
2023/09/30 04:33:35;;;;;;;0.10;0.10;;;14.60;99.90;;;;;;4963467;28;20188;-81
2023/09/30 04:36:01;;;;;;;0.10;0.10;;;14.50;99.90;;;;;;4962769;28;20280;-81
2023/09/30 04:38:27;;;;;;;0.10;0.10;;;14.50;99.90;;;;;;4962046;28;20188;-80
2023/09/30 04:40:54;;;;;;;0.10;0.10;;;14.50;99.90;;;;;;4960306;28;20212;-81
2023/09/30 04:43:20;;;;;;;0.10;0.10;;;14.50;99.90;;;;;;4959061;28;20711;-82
2023/09/30 04:45:47;;;;;;;0.03;0.03;;;14.60;99.90;;;;;;4961726;28;20184;-81
2023/09/30 04:48:13;;;;;;;0.10;0.10;;;14.70;99.90;;;;;;4963839;28;21232;-81
2023/09/30 04:50:39;;;;;;;0.00;0.00;;;14.90;99.90;;;;;;4958145;28;20212;-80
2023/09/30 04:53:05;;;;;;;0.10;0.10;;;15.00;99.90;;;;;;4957593;28;20262;-80
2023/09/30 04:55:31;;;;;;;0.10;0.10;;;14.90;99.90;;;;;;4960155;28;20263;-80
2023/09/30 04:57:56;;;;;;;0.10;0.10;;;14.80;99.90;;;;;;4959899;28;20194;-80
2023/09/30 05:00:24;;;;;;;0.10;0.10;;;14.70;99.90;;;;;;4960909;28;20224;-80
2023/09/30 05:02:52;;;;;;;0.10;0.10;;;14.80;99.90;;;;;;4959040;28;20205;-80
2023/09/30 05:05:18;;;;;;;0.10;0.10;;;14.60;99.90;;;;;;4958700;28;20187;-80
2023/09/30 05:07:44;;;;;;;0.10;0.10;;;14.50;99.90;;;;;;4956806;28;20220;-80
2023/09/30 05:10:13;;;;;;;0.10;0.10;;;14.40;99.90;;;;;;4955313;28;20242;-81
2023/09/30 05:12:38;;;;;;;0.10;0.10;;;14.20;99.90;;;;;;4988582;28;20195;-81
2023/09/30 05:15:08;;;;;;;0.10;0.10;;;14.20;99.90;;;;;;4956692;28;20192;-81
2023/09/30 05:17:33;;;;;;;0.10;0.10;;;14.10;99.90;;;;;;4958462;28;20200;-82
2023/09/30 05:19:59;;;;;;;0.10;0.10;;;14.20;99.90;;;;;;4961564;28;20205;-81
2023/09/30 05:22:25;;;;;;;0.10;0.10;;;14.30;99.90;;;;;;4962724;28;20187;-80
2023/09/30 05:24:51;;;;;;;0.10;0.10;;;14.30;99.90;;;;;;4955843;28;20186;-81
2023/09/30 05:27:17;;;;;;;0.10;0.10;;;14.30;99.90;;;;;;4958412;28;20219;-80
2023/09/30 05:29:46;;;;;;;0.10;0.10;;;14.40;99.90;;;;;;4958561;28;20216;-80
2023/09/30 05:32:13;;;;;;;0.10;0.10;;;14.40;99.90;;;;;;4954632;28;20270;-80
2023/09/30 05:34:39;;;;;;;0.10;0.10;;;14.40;99.90;;;;;;4957472;28;20187;-80
2023/09/30 05:37:04;;;;;;;0.10;0.10;;;14.40;99.90;;;;;;4956249;28;20187;-80
2023/09/30 05:39:31;;;;;;;0.10;0.10;;;14.40;99.90;;;;;;4957892;28;21192;-80
2023/09/30 05:41:57;;;;;;;0.10;0.10;;;14.40;99.90;;;;;;4955796;28;20188;-81
2023/09/30 05:44:23;;;;;;;0.10;0.10;;;14.40;99.90;;;;;;4957951;28;20655;-80
2023/09/30 05:46:49;;;;;;;0.10;0.10;;;14.30;99.90;;;;;;4958951;28;20188;-80
2023/09/30 05:49:15;;;;;;;0.10;0.10;;;14.30;99.90;;;;;;4958639;28;20181;-80
2023/09/30 05:51:41;;;;;;;0.10;0.10;;;14.20;99.90;;;;;;4960367;28;20267;-80
2023/09/30 05:54:09;;;;;;;0.10;0.10;;;14.10;99.90;;;;;;4972229;28;20210;-80
2023/09/30 05:56:37;;;;;;;0.10;0.10;;;14.00;99.90;;;;;;4958297;28;20197;-79
2023/09/30 05:59:03;;;;;;;0.10;0.10;;;14.00;99.90;;;;;;4960889;28;20188;-80
2023/09/30 06:01:28;;;;;;;0.10;0.10;;;13.90;99.90;;;;;;4960566;28;20229;-80
2023/09/30 06:03:54;;;;;;;0.00;0.00;;;13.70;99.90;;;;;;4957948;28;20664;-79
2023/09/30 06:06:20;;;;;;;0.07;0.07;;;13.60;99.90;;;;;;4954524;28;20187;-80
2023/09/30 06:08:45;;;;;;;0.10;0.10;;;13.50;99.90;;;;;;4955003;28;20191;-81
2023/09/30 06:11:19;;;;;;;0.10;0.10;;;13.50;99.90;;;;;;4956108;28;20258;-81
2023/09/30 06:13:47;;;;;;;0.10;0.10;;;13.50;99.90;;;;;;4958605;28;20240;-81
2023/09/30 06:16:13;;;;;;;0.10;0.10;;;13.60;99.90;;;;;;4960183;28;20659;-81
2023/09/30 06:18:38;;;;;;;0.10;0.10;;;13.80;99.90;;;;;;4959993;28;20196;-81
2023/09/30 06:21:04;;;;;;;0.10;0.10;;;13.90;99.90;;;;;;4959547;28;20219;-80
2023/09/30 06:23:30;;;;;;;0.10;0.10;;;14.10;99.90;;;;;;4959264;28;20180;-81
2023/09/30 06:25:57;;;;;;;0.10;0.10;;;14.10;99.90;;;;;;4957794;28;20267;-81
2023/09/30 06:28:25;;;;;;;0.10;0.10;;;14.00;99.90;;;;;;4956789;28;20184;-80
2023/09/30 06:30:52;;;;;;;0.10;0.10;;;13.90;99.90;;;;;;4958865;28;20195;-81
2023/09/30 06:33:18;;;;;;;0.10;0.10;;;13.90;99.90;;;;;;4957229;28;20812;-81
2023/09/30 06:35:50;;;;;;;0.10;0.10;;;13.90;99.90;;;;;;4957613;28;20286;-80
2023/09/30 06:38:20;;;;;;;0.10;0.10;;;14.00;99.90;;;;;;4959310;28;20682;-81
2023/09/30 06:40:47;;;;;;;0.10;0.10;;;14.20;99.90;;;;;;4960426;28;20743;-81
2023/09/30 06:43:15;;;;;;;0.10;0.10;;;14.00;99.90;;;;;;4959596;28;20190;-81
2023/09/30 06:45:44;;;;;;;0.10;0.10;;;13.90;99.90;;;;;;4956829;28;20278;-81
2023/09/30 06:48:13;;;;;;;0.10;0.10;;;13.90;99.90;;;;;;4957400;28;20279;-80
2023/09/30 06:50:48;;;;;;;0.10;0.10;;;14.00;99.90;;;;;;4962650;28;20200;-81
2023/09/30 06:53:14;;;;;;;0.10;0.10;;;14.10;99.90;;;;;;4963700;28;20213;-81
2023/09/30 06:55:40;;;;;;;0.10;0.10;;;14.20;99.90;;;;;;4961043;28;20190;-81
2023/09/30 06:58:07;;;;;;;0.10;0.10;;;14.10;99.90;;;;;;4962316;28;20225;-81
2023/09/30 07:00:34;;;;;;;0.10;0.10;;;14.10;99.90;;;;;;4961700;28;20308;-81
2023/09/30 07:03:00;;;;;;;0.10;0.10;;;14.40;99.90;;;;;;4962133;28;20680;-81
2023/09/30 07:05:25;;;;;;;0.10;0.10;;;14.80;99.90;;;;;;4961904;28;20200;-81
2023/09/30 07:07:51;;;;;;;0.10;0.10;;;14.80;99.90;;;;;;4957326;28;20664;-80
2023/09/30 07:10:16;;;;;;;0.10;0.10;;;14.90;99.90;;;;;;4958248;28;20211;-81
2023/09/30 07:12:42;;;;;;;0.10;0.10;;;15.30;99.90;;;;;;4959679;28;20197;-81
2023/09/30 07:15:08;;;;;;;0.10;0.10;;;15.30;99.90;;;;;;4960653;28;20192;-81
2023/09/30 07:17:34;;;;;;;0.10;0.10;;;15.50;99.90;;;;;;4958317;28;20196;-81
2023/09/30 07:20:00;;;;;;;0.10;0.10;;;15.50;99.90;;;;;;4960041;28;20227;-81
2023/09/30 07:22:26;;;;;;;0.10;0.10;;;15.60;99.90;;;;;;4957081;28;20228;-82
2023/09/30 07:24:52;;;;;;;0.10;0.10;;;15.70;99.90;;;;;;4960312;28;20224;-81
2023/09/30 07:27:18;;;;;;;0.10;0.10;;;16.00;99.90;;;;;;4960356;28;20184;-81
2023/09/30 07:29:44;;;;;;;0.07;0.07;;;16.20;99.90;;;;;;4960391;28;20267;-82
2023/09/30 07:32:09;;;;;;;0.10;0.10;;;16.50;99.90;;;;;;4961774;28;20608;-81
2023/09/30 07:34:35;;;;;;;0.10;0.10;;;16.70;99.90;;;;;;4960765;28;20195;-82
2023/09/30 07:37:01;;;;;;;0.10;0.10;;;17.00;99.90;;;;;;4960121;28;20185;-82
2023/09/30 07:39:26;;;;;;;0.10;0.10;;;17.10;99.90;;;;;;4961312;28;20287;-82
2023/09/30 07:41:52;;;;;;;0.10;0.10;;;17.30;99.90;;;;;;4993326;28;20193;-82
2023/09/30 07:44:17;;;;;;;0.10;0.10;;;17.30;99.90;;;;;;4961714;28;20652;-82
2023/09/30 07:46:43;;;;;;;0.10;0.10;;;17.30;99.90;;;;;;4960562;28;20188;-82
2023/09/30 07:49:10;;;;;;;0.10;0.10;;;17.60;99.90;;;;;;4960971;28;20189;-82
2023/09/30 07:51:35;;;;;;;0.10;0.10;;;17.80;99.90;;;;;;4960078;28;20204;-82
2023/09/30 07:54:01;;;;;;;0.10;0.10;;;17.90;99.90;;;;;;4961113;28;20288;-82
2023/09/30 07:56:27;;;;;;;0.10;0.10;;;18.10;99.90;;;;;;4958651;28;20220;-82
2023/09/30 07:58:53;;;;;;;0.10;0.10;;;17.90;99.90;;;;;;4959516;28;20185;-82
2023/09/30 08:01:19;;;;;;;0.10;0.10;;;18.00;99.90;;;;;;4958855;28;20219;-82
2023/09/30 08:03:45;;;;;;;0.10;0.10;;;18.00;99.90;;;;;;4960597;28;20718;-82
2023/09/30 08:06:11;;;;;;;0.10;0.10;;;18.00;99.90;;;;;;4958551;28;20197;-81
2023/09/30 08:08:37;;;;;;;0.10;0.10;;;17.90;99.90;;;;;;4961749;28;20193;-82
2023/09/30 08:11:02;;;;;;;0.10;0.10;;;18.10;99.90;;;;;;4962394;28;20688;-82
2023/09/30 08:13:32;;;;;;;0.10;0.10;;;18.40;99.90;;;;;;4962375;28;20250;-82
2023/09/30 08:15:57;;;;;;;0.10;0.10;;;18.60;99.90;;;;;;4962865;28;20880;-82
2023/09/30 08:18:23;;;;;;;0.10;0.10;;;18.80;99.90;;;;;;4963811;28;20192;-82
2023/09/30 08:20:49;;;;;;;0.10;0.10;;;18.90;99.90;;;;;;4967394;28;20212;-81
2023/09/30 08:23:14;;;;;;;0.10;0.10;;;19.00;99.90;;;;;;4962712;28;20248;-82
2023/09/30 08:25:40;;;;;;;0.10;0.10;;;18.90;99.90;;;;;;4959685;28;20200;-82
2023/09/30 08:28:05;;;;;;;0.10;0.10;;;19.00;99.90;;;;;;4963787;28;20663;-82
2023/09/30 08:30:33;;;;;;;0.10;0.10;;;19.10;99.90;;;;;;4960518;28;20676;-82
2023/09/30 08:32:59;;;;;;;0.10;0.10;;;19.10;99.90;;;;;;4958606;28;20181;-81
2023/09/30 08:35:25;;;;;;;0.10;0.10;;;19.10;99.90;;;;;;4964102;28;20632;-82
2023/09/30 08:37:50;;;;;;;0.10;0.10;;;19.10;99.90;;;;;;4962881;28;20188;-82
2023/09/30 08:40:22;;;;;;;0.10;0.10;;;19.10;99.90;;;;;;4962049;28;20215;-82
2023/09/30 08:42:52;;;;;;;0.10;0.10;;;19.30;99.90;;;;;;4963873;28;20235;-82
2023/09/30 08:45:19;;;;;;;0.10;0.10;;;19.40;99.90;;;;;;4962358;28;20686;-82
2023/09/30 08:47:46;;;;;;;0.10;0.10;;;19.30;99.90;;;;;;4963996;28;20187;-82
2023/09/30 08:50:13;;;;;;;0.10;0.10;;;19.50;99.90;;;;;;4959024;28;20232;-82
2023/09/30 08:52:40;;;;;;;0.10;0.10;;;19.70;99.90;;;;;;4960981;28;20288;-82
2023/09/30 08:55:09;;;;;;;0.10;0.10;;;19.70;99.90;;;;;;4958870;28;20188;-81
2023/09/30 08:57:42;;;;;;;0.10;0.10;;;19.60;99.90;;;;;;4960430;28;20193;-82
2023/09/30 09:00:12;;;;;;;0.10;0.10;;;19.70;99.90;;;;;;4959403;28;20644;-81
2023/09/30 09:02:41;;;;;;;0.10;0.10;;;19.80;99.90;;;;;;4959289;28;20205;-81
2023/09/30 09:05:07;;;;;;;0.10;0.10;;;19.90;99.90;;;;;;4958677;28;20214;-81
2023/09/30 09:07:34;;;;;;;0.10;0.10;;;20.00;99.90;;;;;;4957165;28;20239;-81
2023/09/30 09:10:12;;;;;;;0.10;0.10;;;20.20;99.90;;;;;;4957446;28;20227;-81
2023/09/30 09:12:38;;;;;;;0.10;0.10;;;20.30;99.90;;;;;;4955031;28;20233;-81
2023/09/30 09:15:19;;;;;;;0.10;0.10;;;20.40;99.90;;;;;;4960283;28;20199;-81
2023/09/30 09:17:45;;;;;;;0.20;0.20;;;20.50;99.90;;;;;;4975373;28;20227;-81
2023/09/30 09:20:14;;;;;;;0.10;0.10;;;20.70;99.90;;;;;;4956481;28;20213;-81
2023/09/30 09:22:43;;;;;;;0.10;0.10;;;20.80;99.90;;;;;;4972240;28;20188;-81
2023/09/30 09:25:10;;;;;;;0.10;0.10;;;20.70;99.90;;;;;;4973234;28;20181;-81
2023/09/30 09:27:36;;;;;;;0.10;0.10;;;20.80;99.90;;;;;;4961802;28;20200;-81
2023/09/30 09:30:24;;;;;;;0.10;0.10;;;20.90;99.90;;;;;;4956204;28;20292;-81
2023/09/30 09:33:07;;;;;;;0.10;0.10;;;20.90;99.90;;;;;;4960060;28;20564;-81
2023/09/30 09:35:35;;;;;;;0.10;0.10;;;20.90;99.90;;;;;;4959417;28;20664;-81
2023/09/30 09:38:05;;;;;;;0.10;0.10;;;20.90;99.90;;;;;;4960292;28;20192;-80
2023/09/30 09:40:33;;;;;;;0.10;0.10;;;21.10;99.90;;;;;;4951837;28;20279;-81
2023/09/30 09:43:02;;;;;;;0.10;0.10;;;21.30;99.90;;;;;;4955318;28;20185;-81
2023/09/30 09:45:28;;;;;;;0.10;0.10;;;21.40;99.90;;;;;;4957868;28;20191;-81
2023/09/30 09:47:54;;;;;;;0.10;0.10;;;21.20;99.90;;;;;;4959642;28;20650;-80
2023/09/30 09:50:22;;;;;;;0.10;0.10;;;21.40;99.90;;;;;;4970925;28;20221;-80
2023/09/30 09:52:55;;;;;;;0.10;0.10;;;21.60;99.90;;;;;;4958579;28;20598;-80
2023/09/30 09:55:22;;;;;;;0.10;0.10;;;21.70;99.90;;;;;;4957366;28;20263;-81
2023/09/30 09:57:49;;;;;;;0.10;0.10;;;21.70;99.90;;;;;;4957982;28;20748;-81
2023/09/30 10:00:18;;;;;;;0.10;0.10;;;21.80;99.90;;;;;;4956593;28;20696;-81
2023/09/30 10:02:46;;;;;;;0.10;0.10;;;21.90;99.90;;;;;;4958152;28;20201;-81
2023/09/30 10:05:12;;;;;;;0.10;0.10;;;21.70;99.90;;;;;;4975423;28;20695;-81
2023/09/30 10:07:43;;;;;;;0.10;0.10;;;22.20;99.90;;;;;;4958539;28;20188;-81
2023/09/30 10:10:15;;;;;;;0.10;0.10;;;22.40;99.90;;;;;;4956967;28;20258;-81
2023/09/30 10:12:41;;;;;;;0.10;0.10;;;22.60;99.90;;;;;;4960784;28;20189;-82
2023/09/30 10:15:40;;;;;;;0.10;0.10;;;22.50;99.90;;;;;;4957677;28;21374;-81
2023/09/30 10:18:10;;;;;;;0.10;0.10;;;22.70;99.90;;;;;;4955767;28;20668;-81
2023/09/30 10:20:38;;;;;;;0.10;0.10;;;22.90;99.90;;;;;;4958580;28;20224;-82
2023/09/30 10:23:21;;;;;;;0.10;0.10;;;23.20;99.90;;;;;;4955966;28;20180;-82
2023/09/30 10:25:51;;;;;;;0.10;0.10;;;23.60;99.90;;;;;;4962775;28;20597;-81
2023/09/30 10:28:36;;;;;;;0.10;0.10;;;23.60;99.90;;;;;;4964036;28;20285;-81
2023/09/30 10:31:24;;;;;;;0.10;0.10;;;23.80;99.90;;;;;;4963436;28;20301;-80
2023/09/30 10:34:01;;;;;;;0.10;0.10;;;23.90;99.90;;;;;;4964102;28;20207;-81
2023/09/30 10:36:41;;;;;;;0.10;0.10;;;24.10;99.90;;;;;;4967586;28;20668;-82
2023/09/30 10:39:13;;;;;;;0.10;0.10;;;24.10;99.90;;;;;;4965862;28;20258;-81
2023/09/30 10:41:39;;;;;;;0.10;0.10;;;24.10;99.90;;;;;;4964529;28;20770;-81
2023/09/30 10:44:25;;;;;;;0.10;0.10;;;23.80;99.90;;;;;;4964277;28;20259;-81
2023/09/30 10:46:55;;;;;;;0.10;0.10;;;23.80;99.90;;;;;;4962338;28;20208;-81
2023/09/30 10:49:24;;;;;;;0.10;0.10;;;23.80;99.90;;;;;;4964683;28;20191;-82
2023/09/30 10:52:04;;;;;;;0.10;0.10;;;23.50;99.90;;;;;;4964073;28;20238;-81
2023/09/30 10:54:31;;;;;;;0.10;0.10;;;23.60;99.90;;;;;;4965798;28;20184;-81
2023/09/30 10:57:00;;;;;;;0.10;0.10;;;23.60;99.90;;;;;;4995614;28;20189;-81
2023/09/30 10:59:27;;;;;;;0.10;0.10;;;23.70;99.90;;;;;;4981510;28;20216;-81
2023/09/30 11:01:53;;;;;;;0.10;0.10;;;23.60;99.90;;;;;;4965584;28;20665;-81
2023/09/30 11:04:20;;;;;;;0.10;0.10;;;23.80;99.90;;;;;;4962740;28;20223;-81
2023/09/30 11:06:46;;;;;;;0.10;0.10;;;23.90;99.90;;;;;;4964382;28;20184;-81
2023/09/30 11:09:20;;;;;;;0.10;0.10;;;23.50;99.90;;;;;;4959786;28;20189;-81
2023/09/30 11:11:50;;;;;;;0.10;0.10;;;23.50;99.90;;;;;;4961463;28;20193;-81
2023/09/30 11:14:30;;;;;;;0.10;0.10;;;23.60;99.90;;;;;;4961772;28;21078;-81
2023/09/30 11:17:01;;;;;;;0.10;0.10;;;23.30;99.90;;;;;;4962396;28;20191;-81
2023/09/30 11:19:45;;;;;;;0.10;0.10;;;22.90;99.90;;;;;;4965933;28;20684;-81
2023/09/30 11:22:11;;;;;;;0.10;0.10;;;23.20;99.90;;;;;;4964503;28;20192;-81
2023/09/30 11:24:37;;;;;;;0.10;0.10;;;23.20;99.90;;;;;;4964769;28;20216;-81
2023/09/30 11:27:03;;;;;;;0.10;0.10;;;23.30;99.90;;;;;;4979868;28;20188;-81
2023/09/30 11:29:28;;;;;;;0.10;0.10;;;23.30;99.90;;;;;;4966364;28;20196;-80
2023/09/30 11:31:55;;;;;;;0.10;0.10;;;23.50;99.90;;;;;;4963338;28;20231;-80
2023/09/30 11:34:32;;;;;;;0.10;0.10;;;23.10;99.90;;;;;;4966500;28;20193;-80
2023/09/30 11:37:00;;;;;;;0.10;0.10;;;23.20;99.90;;;;;;4961208;28;20623;-81
2023/09/30 11:39:27;;;;;;;0.10;0.10;;;23.50;99.90;;;;;;4962971;28;20279;-80
2023/09/30 11:41:55;;;;;;;0.10;0.10;;;23.70;99.90;;;;;;4958916;28;20182;-80
2023/09/30 11:44:21;;;;;;;0.10;0.10;;;23.60;99.90;;;;;;4977167;28;20185;-80
2023/09/30 11:46:55;;;;;;;0.10;0.10;;;23.60;99.90;;;;;;4965198;28;20260;-80
2023/09/30 11:49:41;;;;;;;0.10;0.10;;;23.70;99.90;;;;;;4959770;28;20627;-80
2023/09/30 11:52:12;;;;;;;0.10;0.10;;;23.80;99.90;;;;;;4956807;28;20596;-80
2023/09/30 11:54:43;;;;;;;0.10;0.10;;;23.90;99.90;;;;;;4961755;28;20614;-80
2023/09/30 11:57:09;;;;;;;0.10;0.10;;;23.60;99.90;;;;;;4956147;28;20251;-81
2023/09/30 11:59:36;;;;;;;0.10;0.10;;;23.50;99.90;;;;;;4961221;28;20298;-80
2023/09/30 12:02:03;;;;;;;0.10;0.10;;;23.40;99.90;;;;;;4960517;28;20200;-80
2023/09/30 12:04:29;;;;;;;0.10;0.10;;;23.40;99.90;;;;;;4959658;28;20201;-80
2023/09/30 12:06:55;;;;;;;0.10;0.10;;;23.50;99.90;;;;;;4958913;28;20192;-80
2023/09/30 12:09:22;;;;;;;0.10;0.10;;;23.60;99.90;;;;;;4959911;28;20301;-80
2023/09/30 12:11:49;;;;;;;0.10;0.10;;;23.70;99.90;;;;;;4957168;28;20193;-81
2023/09/30 12:14:15;;;;;;;0.10;0.10;;;23.80;99.90;;;;;;4957735;28;20219;-83
2023/09/30 12:16:41;;;;;;;0.10;0.10;;;24.00;99.90;;;;;;4964019;28;20200;-80
2023/09/30 12:19:08;;;;;;;0.10;0.10;;;24.10;99.90;;;;;;4962686;28;20188;-80
2023/09/30 12:21:34;;;;;;;0.10;0.10;;;24.00;99.90;;;;;;4959718;28;20508;-80
2023/09/30 12:24:01;;;;;;;0.10;0.10;;;23.70;99.80;;;;;;4961603;28;20195;-80
2023/09/30 12:26:27;;;;;;;0.10;0.10;;;23.90;99.90;;;;;;4960285;28;20187;-80
2023/09/30 12:28:52;;;;;;;0.10;0.10;;;23.80;99.90;;;;;;4960805;28;20590;-80
2023/09/30 12:31:20;;;;;;;0.10;0.10;;;24.10;99.90;;;;;;4956595;28;21035;-80
2023/09/30 12:33:50;;;;;;;0.10;0.10;;;24.30;99.90;;;;;;4958887;28;20664;-80
2023/09/30 12:36:16;;;;;;;0.10;0.10;;;24.30;99.90;;;;;;4957211;28;20193;-80
2023/09/30 12:38:42;;;;;;;0.10;0.10;;;24.00;99.90;;;;;;4957528;28;20308;-80
2023/09/30 12:41:08;;;;;;;0.10;0.10;;;24.20;99.90;;;;;;4958960;28;20342;-81
2023/09/30 12:43:34;;;;;;;0.10;0.10;;;24.10;99.90;;;;;;4960228;28;20184;-80
2023/09/30 12:46:00;;;;;;;0.10;0.10;;;23.80;99.90;;;;;;4958088;28;20224;-81
2023/09/30 12:48:26;;;;;;;0.10;0.10;;;23.60;99.90;;;;;;4958054;28;20278;-80